Time,TemperatureF,DewpointF,PressureIn,WindDirection,WindDirectionDegrees,WindSpeedMPH,WindSpeedGustMPH,Humidity,HourlyPrecipIn,Conditions,Clouds,dailyrainin,SoftwareType,DateUTC
2013-08-02 00:02:00,57.0,46.0,30.23,SSW,198,6.0,14.0,67,0.00,,,0.15,,2013-08-02 06:02:00,
2013-08-02 00:12:00,57.0,46.0,30.23,SSW,198,6.0,14.0,67,0.00,,,0.15,,2013-08-02 06:12:00,
2013-08-02 00:22:00,57.0,46.0,30.24,WSW,253,5.0,9.0,67,0.00,,,0.15,,2013-08-02 06:22:00,
2013-08-02 00:33:00,57.0,45.0,30.24,WSW,251,1.0,12.0,65,0.00,,,0.15,,2013-08-02 06:33:00,
2013-08-02 00:43:00,57.0,45.0,30.24,WSW,251,1.0,12.0,65,0.00,,,0.15,,2013-08-02 06:43:00,
2013-08-02 00:52:00,58.0,46.0,30.24,WSW,245,6.0,12.0,65,0.00,,,0.15,,2013-08-02 06:52:00,
2013-08-02 01:02:00,57.0,45.0,30.24,SW,236,5.0,12.0,65,0.00,,,0.15,,2013-08-02 07:02:00,
2013-08-02 01:12:00,57.0,45.0,30.24,SW,236,5.0,12.0,65,0.00,,,0.15,,2013-08-02 07:12:00,
2013-08-02 01:22:00,56.0,45.0,30.22,WSW,249,2.0,9.0,67,0.00,,,0.15,,2013-08-02 07:22:00,
2013-08-02 01:33:00,57.0,45.0,30.23,WNW,292,5.0,11.0,64,0.00,,,0.15,,2013-08-02 07:33:00,
2013-08-02 01:44:00,57.0,45.0,30.23,WNW,292,5.0,11.0,64,0.00,,,0.15,,2013-08-02 07:44:00,
2013-08-02 01:53:00,57.0,45.0,30.22,NW,314,2.0,5.0,65,0.00,,,0.15,,2013-08-02 07:53:00,
2013-08-02 02:02:00,56.0,46.0,30.23,WNW,293,2.0,6.0,69,0.00,,,0.15,,2013-08-02 08:02:00,
2013-08-02 02:12:00,56.0,46.0,30.23,WNW,293,2.0,6.0,69,0.00,,,0.15,,2013-08-02 08:12:00,
2013-08-02 02:22:00,58.0,45.0,30.21,South,180,6.0,8.0,63,0.00,,,0.15,,2013-08-02 08:22:00,
2013-08-02 02:33:00,57.0,45.0,30.20,South,180,0.0,3.0,64,0.00,,,0.15,,2013-08-02 08:33:00,
2013-08-02 02:43:00,57.0,45.0,30.20,South,180,0.0,3.0,64,0.00,,,0.15,,2013-08-02 08:43:00,
2013-08-02 02:54:00,60.0,44.0,30.21,SSW,198,9.0,16.0,56,0.00,,,0.15,,2013-08-02 08:54:00,
2013-08-02 03:02:00,60.0,44.0,30.21,WSW,251,8.0,16.0,56,0.01,,,0.16,,2013-08-02 09:02:00,
2013-08-02 03:12:00,60.0,44.0,30.21,WSW,251,8.0,16.0,56,0.01,,,0.16,,2013-08-02 09:12:00,
2013-08-02 03:22:00,59.0,44.0,30.22,NW,310,8.0,15.0,57,0.01,,,0.16,,2013-08-02 09:22:00,
2013-08-02 03:33:00,59.0,44.0,30.23,North,355,7.0,13.0,58,0.01,,,0.16,,2013-08-02 09:33:00,
2013-08-02 03:43:00,59.0,44.0,30.23,North,355,7.0,13.0,58,0.01,,,0.16,,2013-08-02 09:43:00,
2013-08-02 03:53:00,59.0,44.0,30.23,SW,225,3.0,11.0,57,0.01,,,0.16,,2013-08-02 09:53:00,
2013-08-02 04:02:00,59.0,43.0,30.24,WNW,298,6.0,11.0,56,0.00,,,0.16,,2013-08-02 10:02:00,
2013-08-02 04:12:00,59.0,43.0,30.24,WNW,298,6.0,11.0,56,0.00,,,0.16,,2013-08-02 10:12:00,
2013-08-02 04:23:00,60.0,44.0,30.24,NW,318,8.0,16.0,55,0.00,,,0.16,,2013-08-02 10:23:00,
2013-08-02 04:33:00,60.0,43.0,30.24,SW,232,8.0,14.0,54,0.00,,,0.16,,2013-08-02 10:33:00,
2013-08-02 04:43:00,60.0,43.0,30.24,SW,232,8.0,14.0,54,0.00,,,0.16,,2013-08-02 10:43:00,
2013-08-02 04:52:00,60.0,43.0,30.24,WSW,257,10.0,20.0,54,0.00,,,0.16,,2013-08-02 10:52:00,
2013-08-02 05:02:00,60.0,44.0,30.24,SW,224,7.0,20.0,55,0.00,,,0.16,,2013-08-02 11:02:00,
2013-08-02 05:12:00,60.0,44.0,30.24,SW,224,7.0,20.0,55,0.00,,,0.16,,2013-08-02 11:12:00,
2013-08-02 05:23:00,59.0,44.0,30.23,SW,232,5.0,18.0,57,0.00,,,0.16,,2013-08-02 11:23:00,
2013-08-02 05:32:00,59.0,44.0,30.23,SSW,195,4.0,9.0,58,0.00,,,0.16,,2013-08-02 11:32:00,
2013-08-02 05:42:00,59.0,44.0,30.23,SSW,195,4.0,9.0,58,0.00,,,0.16,,2013-08-02 11:42:00,
2013-08-02 05:52:00,59.0,44.0,30.22,South,184,6.0,14.0,57,0.00,,,0.16,,2013-08-02 11:52:00,
2013-08-02 06:02:00,60.0,44.0,30.23,SW,217,10.0,16.0,56,0.00,,,0.16,,2013-08-02 12:02:00,
2013-08-02 06:12:00,60.0,44.0,30.23,SW,217,10.0,16.0,56,0.00,,,0.16,,2013-08-02 12:12:00,
2013-08-02 06:22:00,61.0,45.0,30.23,WSW,248,7.0,21.0,55,0.00,,,0.16,,2013-08-02 12:22:00,
2013-08-02 06:32:00,61.0,44.0,30.24,SW,232,11.0,21.0,54,0.00,,,0.16,,2013-08-02 12:32:00,
2013-08-02 06:43:00,61.0,44.0,30.24,SW,232,11.0,21.0,54,0.00,,,0.16,,2013-08-02 12:43:00,
2013-08-02 06:52:00,61.0,44.0,30.24,SSW,213,10.0,25.0,54,0.00,,,0.16,,2013-08-02 12:52:00,
2013-08-02 07:02:00,62.0,45.0,30.24,South,188,8.0,19.0,53,0.00,,,0.16,,2013-08-02 13:02:00,
2013-08-02 07:12:00,62.0,45.0,30.24,South,188,8.0,19.0,53,0.00,,,0.16,,2013-08-02 13:12:00,
2013-08-02 07:22:00,63.0,46.0,30.23,South,190,7.0,16.0,53,0.00,,,0.16,,2013-08-02 13:22:00,
2013-08-02 07:33:00,64.0,46.0,30.24,South,191,15.0,23.0,52,0.00,,,0.16,,2013-08-02 13:33:00,
2013-08-02 07:43:00,64.0,46.0,30.24,South,191,15.0,23.0,52,0.00,,,0.16,,2013-08-02 13:43:00,
2013-08-02 07:52:00,64.0,46.0,30.24,SSW,199,9.0,19.0,52,0.00,,,0.16,,2013-08-02 13:52:00,
2013-08-02 08:02:00,65.0,47.0,30.24,WSW,253,8.0,19.0,52,0.00,,,0.16,,2013-08-02 14:02:00,
2013-08-02 08:12:00,65.0,47.0,30.24,WSW,253,8.0,19.0,52,0.00,,,0.16,,2013-08-02 14:12:00,
2013-08-02 08:22:00,66.0,47.0,30.25,SW,233,11.0,21.0,50,0.00,,,0.16,,2013-08-02 14:22:00,
2013-08-02 08:32:00,66.0,47.0,30.24,SSW,211,12.0,23.0,50,0.00,,,0.16,,2013-08-02 14:32:00,
2013-08-02 08:43:00,66.0,47.0,30.24,SSW,211,12.0,23.0,50,0.00,,,0.16,,2013-08-02 14:43:00,
2013-08-02 08:53:00,67.0,48.0,30.25,SSW,205,10.0,23.0,50,0.00,,,0.16,,2013-08-02 14:53:00,
2013-08-02 09:03:00,67.0,47.0,30.25,WSW,243,14.0,24.0,49,0.00,,,0.16,,2013-08-02 15:03:00,
2013-08-02 09:12:00,67.0,47.0,30.25,WSW,243,14.0,24.0,49,0.00,,,0.16,,2013-08-02 15:12:00,
2013-08-02 09:22:00,68.0,48.0,30.25,WSW,237,12.0,25.0,49,0.00,,,0.16,,2013-08-02 15:22:00,
2013-08-02 09:32:00,68.0,48.0,30.25,SSW,200,18.0,29.0,48,0.00,,,0.16,,2013-08-02 15:32:00,
2013-08-02 09:43:00,68.0,48.0,30.25,SSW,200,18.0,29.0,48,0.00,,,0.16,,2013-08-02 15:43:00,
2013-08-02 09:52:00,69.0,48.0,30.26,SSW,205,15.0,23.0,48,0.00,,,0.16,,2013-08-02 15:52:00,
2013-08-02 10:02:00,70.0,49.0,30.28,SW,230,11.0,22.0,48,0.00,,,0.16,,2013-08-02 16:02:00,
2013-08-02 10:12:00,70.0,49.0,30.28,SW,230,11.0,22.0,48,0.00,,,0.16,,2013-08-02 16:12:00,
2013-08-02 10:22:00,70.0,49.0,30.28,SW,230,11.0,22.0,48,0.00,,,0.16,,2013-08-02 16:22:00,
2013-08-02 10:32:00,71.0,48.0,30.29,WSW,237,10.0,23.0,44,0.00,,,0.16,,2013-08-02 16:32:00,
2013-08-02 10:43:00,71.0,48.0,30.29,WSW,237,10.0,23.0,44,0.00,,,0.16,,2013-08-02 16:43:00,
2013-08-02 10:52:00,72.0,48.0,30.29,WSW,249,12.0,19.0,43,0.00,,,0.16,,2013-08-02 16:52:00,
2013-08-02 11:02:00,72.0,48.0,30.29,West,281,11.0,19.0,43,0.00,,,0.16,,2013-08-02 17:02:00,
2013-08-02 11:12:00,72.0,48.0,30.29,West,281,11.0,19.0,43,0.00,,,0.16,,2013-08-02 17:12:00,
2013-08-02 11:22:00,74.0,49.0,30.28,NW,304,8.0,17.0,41,0.00,,,0.16,,2013-08-02 17:22:00,
2013-08-02 11:34:00,74.0,49.0,30.28,SSW,199,9.0,17.0,41,0.00,,,0.16,,2013-08-02 17:34:00,
2013-08-02 11:43:00,74.0,49.0,30.28,SSW,199,9.0,17.0,41,0.00,,,0.16,,2013-08-02 17:43:00,
2013-08-02 11:52:00,75.0,45.0,30.27,West,268,8.0,18.0,34,0.00,,,0.16,,2013-08-02 17:52:00,
2013-08-02 12:02:00,75.0,45.0,30.27,WSW,247,8.0,23.0,34,0.00,,,0.16,,2013-08-02 18:02:00,
2013-08-02 12:12:00,75.0,45.0,30.27,WSW,247,8.0,23.0,34,0.00,,,0.16,,2013-08-02 18:12:00,
2013-08-02 12:22:00,76.0,43.0,30.28,West,259,6.0,15.0,31,0.00,,,0.16,,2013-08-02 18:22:00,
2013-08-02 12:32:00,77.0,40.0,30.28,WSW,250,10.0,19.0,27,0.00,,,0.16,,2013-08-02 18:32:00,
2013-08-02 12:43:00,77.0,40.0,30.28,WSW,250,10.0,19.0,27,0.00,,,0.16,,2013-08-02 18:43:00,
2013-08-02 12:52:00,77.0,42.0,30.28,SW,236,8.0,18.0,29,0.00,,,0.16,,2013-08-02 18:52:00,
2013-08-02 13:02:00,77.0,41.0,30.27,South,187,5.0,20.0,28,0.00,,,0.16,,2013-08-02 19:02:00,
2013-08-02 13:22:00,79.0,40.0,30.28,West,259,12.0,18.0,25,0.00,,,0.16,,2013-08-02 19:22:00,
2013-08-02 13:32:00,78.0,41.0,30.26,SW,232,12.0,19.0,27,0.00,,,0.16,,2013-08-02 19:32:00,
2013-08-02 13:43:00,78.0,41.0,30.26,SW,232,12.0,19.0,27,0.00,,,0.16,,2013-08-02 19:43:00,
2013-08-02 13:52:00,77.0,43.0,30.28,West,265,7.0,14.0,30,0.00,,,0.16,,2013-08-02 19:52:00,
2013-08-02 14:02:00,78.0,42.0,30.29,NW,304,4.0,11.0,28,0.00,,,0.16,,2013-08-02 20:02:00,
2013-08-02 14:12:00,78.0,42.0,30.26,SSW,210,8.0,16.0,28,0.00,,,0.16,,2013-08-02 20:12:00,
2013-08-02 14:22:00,75.0,43.0,30.27,West,269,8.0,15.0,32,0.00,,,0.16,,2013-08-02 20:22:00,
2013-08-02 14:32:00,77.0,45.0,30.27,West,259,3.0,12.0,32,0.00,,,0.16,,2013-08-02 20:32:00,
2013-08-02 14:52:00,77.0,43.0,30.28,NNW,329,1.0,15.0,30,0.00,,,0.16,,2013-08-02 20:52:00,
2013-08-02 15:02:00,77.0,43.0,30.26,SSW,207,2.0,21.0,30,0.00,,,0.16,,2013-08-02 21:02:00,
2013-08-02 15:12:00,77.0,43.0,30.26,SSW,207,2.0,21.0,30,0.00,,,0.16,,2013-08-02 21:12:00,
2013-08-02 15:22:00,78.0,41.0,30.25,South,179,6.0,15.0,27,0.00,,,0.16,,2013-08-02 21:22:00,
2013-08-02 15:32:00,79.0,42.0,30.26,WSW,248,7.0,17.0,27,0.00,,,0.16,,2013-08-02 21:32:00,
2013-08-02 15:43:00,79.0,42.0,30.26,WSW,248,7.0,17.0,27,0.00,,,0.16,,2013-08-02 21:43:00,
2013-08-02 15:53:00,80.0,41.0,30.25,West,263,7.0,18.0,25,0.00,,,0.16,,2013-08-02 21:53:00,
2013-08-02 16:02:00,79.0,44.0,30.26,SW,223,7.0,15.0,29,0.00,,,0.16,,2013-08-02 22:02:00,
2013-08-02 16:12:00,79.0,44.0,30.26,SW,223,7.0,15.0,29,0.00,,,0.16,,2013-08-02 22:12:00,
2013-08-02 16:22:00,80.0,40.0,30.27,WNW,290,4.0,18.0,24,0.00,,,0.16,,2013-08-02 22:22:00,
2013-08-02 16:32:00,81.0,41.0,30.27,WSW,253,11.0,18.0,24,0.00,,,0.16,,2013-08-02 22:32:00,
2013-08-02 16:43:00,81.0,41.0,30.27,WSW,253,11.0,18.0,24,0.00,,,0.16,,2013-08-02 22:43:00,
2013-08-02 16:52:00,78.0,40.0,30.26,WNW,289,2.0,19.0,26,0.00,,,0.16,,2013-08-02 22:52:00,
2013-08-02 17:02:00,79.0,40.0,30.26,SSW,198,10.0,17.0,25,0.00,,,0.16,,2013-08-02 23:02:00,
2013-08-02 17:12:00,79.0,40.0,30.26,SSW,198,10.0,17.0,25,0.00,,,0.16,,2013-08-02 23:12:00,
2013-08-02 17:22:00,78.0,40.0,30.27,SW,228,5.0,7.0,26,0.00,,,0.16,,2013-08-02 23:22:00,
2013-08-02 17:32:00,78.0,39.0,30.26,SSW,198,9.0,16.0,25,0.00,,,0.12,,2013-08-02 23:32:00,
2013-08-02 17:43:00,78.0,39.0,30.26,SSW,198,9.0,16.0,25,0.00,,,0.12,,2013-08-02 23:43:00,
2013-08-02 17:53:00,79.0,40.0,30.27,South,178,6.0,12.0,25,0.00,,,0.12,,2013-08-02 23:53:00,
2013-08-02 18:02:00,77.0,38.0,30.26,SSW,207,4.0,12.0,25,0.00,,,0.12,,2013-08-03 00:02:00,
2013-08-02 18:12:00,77.0,38.0,30.26,SSW,207,4.0,12.0,25,0.00,,,0.12,,2013-08-03 00:12:00,
2013-08-02 18:22:00,79.0,39.0,30.24,SW,227,7.0,16.0,24,0.00,,,0.12,,2013-08-03 00:22:00,
2013-08-02 18:33:00,77.0,38.0,30.24,South,178,3.0,14.0,25,0.00,,,0.11,,2013-08-03 00:33:00,
2013-08-02 18:43:00,77.0,38.0,30.24,South,178,3.0,14.0,25,0.00,,,0.11,,2013-08-03 00:43:00,
2013-08-02 18:52:00,79.0,40.0,30.25,South,182,3.0,7.0,25,0.00,,,0.11,,2013-08-03 00:52:00,
2013-08-02 19:02:00,77.0,39.0,30.26,South,187,1.0,12.0,26,0.00,,,0.11,,2013-08-03 01:02:00,
2013-08-02 19:12:00,77.0,39.0,30.26,South,187,1.0,12.0,26,0.00,,,0.11,,2013-08-03 01:12:00,
2013-08-02 19:22:00,74.0,40.0,30.24,SSE,165,2.0,4.0,29,0.00,,,0.11,,2013-08-03 01:22:00,
2013-08-02 21:32:00,68.0,41.0,30.29,WNW,296,2.0,7.0,37,0.00,,,0.01,,2013-08-03 03:32:00,
2013-08-02 21:43:00,68.0,41.0,30.29,WNW,296,2.0,7.0,37,0.00,,,0.01,,2013-08-03 03:43:00,
2013-08-02 21:53:00,67.0,41.0,30.29,WNW,292,3.0,6.0,38,0.00,,,0.01,,2013-08-03 03:53:00,
2013-08-02 22:02:00,67.0,41.0,30.29,WNW,293,0.0,4.0,39,0.00,,,0.01,,2013-08-03 04:02:00,
2013-08-02 22:12:00,67.0,41.0,30.29,WNW,293,0.0,4.0,39,0.00,,,0.01,,2013-08-03 04:12:00,
2013-08-02 22:22:00,66.0,40.0,30.29,West,259,5.0,11.0,39,0.00,,,0.01,,2013-08-03 04:22:00,
2013-08-02 22:32:00,66.0,42.0,30.31,NNW,344,4.0,7.0,42,0.00,,,0.01,,2013-08-03 04:32:00,
2013-08-02 22:43:00,66.0,42.0,30.31,NNW,344,4.0,7.0,42,0.00,,,0.01,,2013-08-03 04:43:00,
2013-08-02 22:53:00,63.0,41.0,30.29,North,5,2.0,5.0,45,0.00,,,0.01,,2013-08-03 04:53:00,
2013-08-02 23:02:00,63.0,41.0,30.29,North,5,1.0,3.0,45,0.00,,,0.01,,2013-08-03 05:02:00,
2013-08-02 23:12:00,63.0,41.0,30.29,North,5,1.0,3.0,45,0.00,,,0.01,,2013-08-03 05:12:00,
2013-08-02 23:22:00,61.0,43.0,30.31,SSE,156,2.0,6.0,51,0.00,,,0.01,,2013-08-03 05:22:00,
2013-08-02 23:32:00,60.0,42.0,30.29,South,172,6.0,9.0,52,0.00,,,0.01,,2013-08-03 05:32:00,
2013-08-02 23:42:00,60.0,42.0,30.29,South,172,6.0,9.0,52,0.00,,,0.01,,2013-08-03 05:42:00,
2013-08-02 23:52:00,62.0,41.0,30.30,SW,217,6.0,9.0,46,0.00,,,0.01,,2013-08-03 05:52:00,